Airport View

Enter AWOS ICAO identifier for current METAR.

ex. KFNL

KJDD 251255Z AUTO 00000KT 10SM OVC021 16/16 A3002 RMK AO2

25 Sep 2020 13:03

Frequency: 118.9

Phone: 903-768-3065

Other Area AWOS: KTYR - KSLR - KJXI - KOSA

TAF KTYR 251140Z 2512/2612 00000KT 6SM BR BKN020 TEMPO 2512/2514 4SM BR BKN015 FM251400 VRB03KT 6SM BR BKN015 FM251600 17005KT P6SM BKN025 FM251800 16005KT P6SM SCT035 FM252100 17005KT P6SM SCT250 FM260600 VRB03KT P6SM SCT025